sensor_id;sensor_type;location;lat;lon;timestamp;P1;durP1;ratioP1;P2;durP2;ratioP2
17670;SDS011;8954;48.694;8.940;2023-09-18T05:17:38;280.27;;;86.23;;
17670;SDS011;8954;48.694;8.940;2023-09-18T05:20:06;284.03;;;91.70;;
17670;SDS011;8954;48.694;8.940;2023-09-18T05:22:32;286.30;;;94.30;;
17670;SDS011;8954;48.694;8.940;2023-09-18T05:24:58;292.00;;;100.57;;
17670;SDS011;8954;48.694;8.940;2023-09-18T05:27:24;287.57;;;97.63;;
17670;SDS011;8954;48.694;8.940;2023-09-18T05:29:50;291.03;;;99.97;;
17670;SDS011;8954;48.694;8.940;2023-09-18T05:32:15;297.57;;;109.83;;
17670;SDS011;8954;48.694;8.940;2023-09-18T05:34:41;293.03;;;100.07;;
17670;SDS011;8954;48.694;8.940;2023-09-18T05:37:07;299.03;;;107.93;;
17670;SDS011;8954;48.694;8.940;2023-09-18T05:39:32;291.07;;;106.10;;
17670;SDS011;8954;48.694;8.940;2023-09-18T05:41:58;294.30;;;107.03;;
17670;SDS011;8954;48.694;8.940;2023-09-18T05:44:23;295.23;;;106.80;;
17670;SDS011;8954;48.694;8.940;2023-09-18T05:46:49;297.30;;;109.03;;
17670;SDS011;8954;48.694;8.940;2023-09-18T05:49:15;298.80;;;111.03;;
17670;SDS011;8954;48.694;8.940;2023-09-18T05:51:40;296.83;;;105.67;;
17670;SDS011;8954;48.694;8.940;2023-09-18T05:54:06;301.17;;;113.70;;
17670;SDS011;8954;48.694;8.940;2023-09-18T05:56:31;298.93;;;109.47;;
17670;SDS011;8954;48.694;8.940;2023-09-18T05:58:57;300.60;;;111.77;;
17670;SDS011;8954;48.694;8.940;2023-09-18T06:01:22;301.80;;;112.47;;
17670;SDS011;8954;48.694;8.940;2023-09-18T06:03:48;300.60;;;109.63;;
17670;SDS011;8954;48.694;8.940;2023-09-18T06:06:14;298.47;;;105.13;;
17670;SDS011;8954;48.694;8.940;2023-09-18T06:08:39;302.83;;;111.83;;
17670;SDS011;8954;48.694;8.940;2023-09-18T06:11:05;302.00;;;112.33;;
17670;SDS011;8954;48.694;8.940;2023-09-18T06:13:30;304.03;;;112.80;;
17670;SDS011;8954;48.694;8.940;2023-09-18T06:15:56;300.63;;;110.63;;
17670;SDS011;8954;48.694;8.940;2023-09-18T06:18:22;299.40;;;105.97;;
17670;SDS011;8954;48.694;8.940;2023-09-18T06:20:48;299.50;;;107.67;;
17670;SDS011;8954;48.694;8.940;2023-09-18T06:23:14;303.40;;;112.37;;
17670;SDS011;8954;48.694;8.940;2023-09-18T06:25:39;302.70;;;111.43;;
17670;SDS011;8954;48.694;8.940;2023-09-18T06:28:05;304.13;;;111.40;;
17670;SDS011;8954;48.694;8.940;2023-09-18T06:30:32;298.83;;;103.70;;
17670;SDS011;8954;48.694;8.940;2023-09-18T06:32:58;301.43;;;107.40;;
17670;SDS011;8954;48.694;8.940;2023-09-18T06:35:24;304.87;;;114.80;;
17670;SDS011;8954;48.694;8.940;2023-09-18T06:37:50;301.63;;;108.80;;
17670;SDS011;8954;48.694;8.940;2023-09-18T06:40:15;303.00;;;109.97;;
17670;SDS011;8954;48.694;8.940;2023-09-18T06:42:41;302.67;;;108.80;;
17670;SDS011;8954;48.694;8.940;2023-09-18T06:45:07;304.77;;;113.77;;
17670;SDS011;8954;48.694;8.940;2023-09-18T06:47:33;302.63;;;110.33;;
17670;SDS011;8954;48.694;8.940;2023-09-18T06:49:59;303.40;;;112.10;;
17670;SDS011;8954;48.694;8.940;2023-09-18T06:52:29;303.07;;;109.33;;
17670;SDS011;8954;48.694;8.940;2023-09-18T06:54:58;301.43;;;110.30;;
17670;SDS011;8954;48.694;8.940;2023-09-18T06:57:24;300.77;;;110.27;;
17670;SDS011;8954;48.694;8.940;2023-09-18T06:59:50;303.80;;;114.63;;
17670;SDS011;8954;48.694;8.940;2023-09-18T07:02:16;297.43;;;110.93;;
17670;SDS011;8954;48.694;8.940;2023-09-18T07:04:41;296.10;;;108.67;;
17670;SDS011;8954;48.694;8.940;2023-09-18T07:07:13;297.77;;;107.53;;
17670;SDS011;8954;48.694;8.940;2023-09-18T07:09:40;300.23;;;111.67;;
17670;SDS011;8954;48.694;8.940;2023-09-18T07:12:07;299.50;;;109.50;;
17670;SDS011;8954;48.694;8.940;2023-09-18T07:14:34;300.20;;;111.07;;
17670;SDS011;8954;48.694;8.940;2023-09-18T07:17:00;296.73;;;105.03;;
17670;SDS011;8954;48.694;8.940;2023-09-18T07:19:26;297.07;;;104.43;;
17670;SDS011;8954;48.694;8.940;2023-09-18T07:21:52;298.53;;;107.90;;
17670;SDS011;8954;48.694;8.940;2023-09-18T07:24:18;300.00;;;111.30;;
17670;SDS011;8954;48.694;8.940;2023-09-18T07:26:45;301.70;;;111.73;;
17670;SDS011;8954;48.694;8.940;2023-09-18T07:29:13;302.80;;;114.03;;
17670;SDS011;8954;48.694;8.940;2023-09-18T07:31:40;299.30;;;107.93;;
17670;SDS011;8954;48.694;8.940;2023-09-18T07:34:06;300.07;;;107.80;;
17670;SDS011;8954;48.694;8.940;2023-09-18T07:36:32;299.43;;;111.17;;
17670;SDS011;8954;48.694;8.940;2023-09-18T07:38:57;302.20;;;112.00;;
17670;SDS011;8954;48.694;8.940;2023-09-18T07:41:23;303.07;;;112.97;;
17670;SDS011;8954;48.694;8.940;2023-09-18T07:43:50;304.00;;;115.60;;
17670;SDS011;8954;48.694;8.940;2023-09-18T07:46:15;300.10;;;113.90;;
17670;SDS011;8954;48.694;8.940;2023-09-18T07:48:41;302.57;;;112.97;;
17670;SDS011;8954;48.694;8.940;2023-09-18T07:51:10;298.90;;;110.30;;
17670;SDS011;8954;48.694;8.940;2023-09-18T07:53:36;302.27;;;115.50;;
17670;SDS011;8954;48.694;8.940;2023-09-18T07:56:02;301.37;;;116.13;;
17670;SDS011;8954;48.694;8.940;2023-09-18T07:58:29;301.17;;;114.10;;
17670;SDS011;8954;48.694;8.940;2023-09-18T08:00:55;304.10;;;121.00;;
17670;SDS011;8954;48.694;8.940;2023-09-18T08:03:24;300.77;;;114.53;;
17670;SDS011;8954;48.694;8.940;2023-09-18T08:05:51;300.77;;;116.17;;
17670;SDS011;8954;48.694;8.940;2023-09-18T08:08:17;303.20;;;117.70;;
17670;SDS011;8954;48.694;8.940;2023-09-18T08:10:45;304.00;;;118.27;;
17670;SDS011;8954;48.694;8.940;2023-09-18T08:13:11;302.90;;;116.73;;
17670;SDS011;8954;48.694;8.940;2023-09-18T08:15:37;307.07;;;122.33;;
17670;SDS011;8954;48.694;8.940;2023-09-18T08:18:02;303.73;;;116.43;;
17670;SDS011;8954;48.694;8.940;2023-09-18T08:20:28;302.73;;;115.33;;
17670;SDS011;8954;48.694;8.940;2023-09-18T08:22:54;299.47;;;109.27;;
17670;SDS011;8954;48.694;8.940;2023-09-18T08:25:19;302.53;;;113.93;;
17670;SDS011;8954;48.694;8.940;2023-09-18T08:27:45;305.10;;;117.53;;
17670;SDS011;8954;48.694;8.940;2023-09-18T08:30:12;302.93;;;113.40;;
17670;SDS011;8954;48.694;8.940;2023-09-18T08:32:39;302.63;;;111.87;;
17670;SDS011;8954;48.694;8.940;2023-09-18T08:35:06;302.40;;;109.50;;
17670;SDS011;8954;48.694;8.940;2023-09-18T08:37:32;300.97;;;106.83;;
17670;SDS011;8954;48.694;8.940;2023-09-18T08:39:58;303.27;;;112.37;;
17670;SDS011;8954;48.694;8.940;2023-09-18T08:42:26;298.93;;;102.30;;
17670;SDS011;8954;48.694;8.940;2023-09-18T08:44:55;300.23;;;105.37;;
17670;SDS011;8954;48.694;8.940;2023-09-18T08:47:23;301.37;;;105.87;;
17670;SDS011;8954;48.694;8.940;2023-09-18T08:49:49;302.20;;;108.30;;
17670;SDS011;8954;48.694;8.940;2023-09-18T08:52:16;300.70;;;102.87;;
17670;SDS011;8954;48.694;8.940;2023-09-18T08:54:42;301.33;;;103.83;;
17670;SDS011;8954;48.694;8.940;2023-09-18T08:57:09;299.67;;;103.00;;
17670;SDS011;8954;48.694;8.940;2023-09-18T08:59:35;300.20;;;109.03;;
17670;SDS011;8954;48.694;8.940;2023-09-18T09:02:04;299.47;;;102.87;;
17670;SDS011;8954;48.694;8.940;2023-09-18T09:04:29;301.73;;;106.60;;
17670;SDS011;8954;48.694;8.940;2023-09-18T09:06:55;301.43;;;104.77;;
17670;SDS011;8954;48.694;8.940;2023-09-18T09:09:24;298.70;;;100.90;;
17670;SDS011;8954;48.694;8.940;2023-09-18T09:11:51;297.70;;;98.23;;
17670;SDS011;8954;48.694;8.940;2023-09-18T09:14:17;299.77;;;101.17;;
17670;SDS011;8954;48.694;8.940;2023-09-18T09:16:49;300.67;;;103.20;;
17670;SDS011;8954;48.694;8.940;2023-09-18T09:19:16;301.37;;;103.60;;
17670;SDS011;8954;48.694;8.940;2023-09-18T09:21:43;300.10;;;104.90;;
17670;SDS011;8954;48.694;8.940;2023-09-18T09:24:09;300.80;;;105.30;;
17670;SDS011;8954;48.694;8.940;2023-09-18T09:26:39;298.33;;;104.70;;
17670;SDS011;8954;48.694;8.940;2023-09-18T09:29:15;300.20;;;105.73;;
17670;SDS011;8954;48.694;8.940;2023-09-18T09:31:43;300.43;;;105.03;;
17670;SDS011;8954;48.694;8.940;2023-09-18T09:34:10;300.63;;;105.60;;
17670;SDS011;8954;48.694;8.940;2023-09-18T09:36:36;297.43;;;100.20;;
17670;SDS011;8954;48.694;8.940;2023-09-18T09:39:01;299.40;;;103.47;;
17670;SDS011;8954;48.694;8.940;2023-09-18T09:41:30;296.70;;;101.90;;
17670;SDS011;8954;48.694;8.940;2023-09-18T09:43:56;298.30;;;104.27;;
17670;SDS011;8954;48.694;8.940;2023-09-18T09:46:23;298.10;;;105.50;;
17670;SDS011;8954;48.694;8.940;2023-09-18T09:51:29;295.80;;;103.63;;
17670;SDS011;8954;48.694;8.940;2023-09-18T09:53:56;297.33;;;105.10;;
17670;SDS011;8954;48.694;8.940;2023-09-18T09:56:39;298.07;;;107.53;;
17670;SDS011;8954;48.694;8.940;2023-09-18T09:59:08;298.37;;;110.53;;
17670;SDS011;8954;48.694;8.940;2023-09-18T10:01:36;293.67;;;105.83;;
17670;SDS011;8954;48.694;8.940;2023-09-18T10:04:10;294.10;;;105.87;;
17670;SDS011;8954;48.694;8.940;2023-09-18T10:06:38;298.73;;;108.47;;
17670;SDS011;8954;48.694;8.940;2023-09-18T10:09:07;293.30;;;102.30;;
17670;SDS011;8954;48.694;8.940;2023-09-18T10:11:37;293.13;;;102.77;;
17670;SDS011;8954;48.694;8.940;2023-09-18T10:14:29;296.87;;;109.23;;
17670;SDS011;8954;48.694;8.940;2023-09-18T10:16:56;293.40;;;104.63;;
17670;SDS011;8954;48.694;8.940;2023-09-18T10:19:32;294.00;;;103.93;;
17670;SDS011;8954;48.694;8.940;2023-09-18T10:24:41;295.50;;;106.27;;
17670;SDS011;8954;48.694;8.940;2023-09-18T10:27:12;295.87;;;106.53;;
17670;SDS011;8954;48.694;8.940;2023-09-18T10:29:38;295.77;;;100.63;;
17670;SDS011;8954;48.694;8.940;2023-09-18T10:32:06;292.77;;;100.83;;
17670;SDS011;8954;48.694;8.940;2023-09-18T10:34:35;294.23;;;102.00;;
17670;SDS011;8954;48.694;8.940;2023-09-18T10:37:02;291.97;;;99.63;;
17670;SDS011;8954;48.694;8.940;2023-09-18T10:39:32;293.97;;;101.20;;
17670;SDS011;8954;48.694;8.940;2023-09-18T10:42:01;293.30;;;100.90;;
17670;SDS011;8954;48.694;8.940;2023-09-18T10:44:28;293.97;;;103.40;;
17670;SDS011;8954;48.694;8.940;2023-09-18T10:46:56;293.43;;;102.93;;
17670;SDS011;8954;48.694;8.940;2023-09-18T10:49:24;296.77;;;104.13;;
17670;SDS011;8954;48.694;8.940;2023-09-18T10:51:52;297.87;;;104.43;;
17670;SDS011;8954;48.694;8.940;2023-09-18T10:54:23;299.30;;;103.47;;
17670;SDS011;8954;48.694;8.940;2023-09-18T10:56:49;301.93;;;107.97;;
17670;SDS011;8954;48.694;8.940;2023-09-18T10:59:16;300.83;;;104.03;;
17670;SDS011;8954;48.694;8.940;2023-09-18T11:01:42;302.30;;;106.83;;
17670;SDS011;8954;48.694;8.940;2023-09-18T11:04:09;301.00;;;102.40;;
17670;SDS011;8954;48.694;8.940;2023-09-18T11:09:20;302.50;;;106.10;;
17670;SDS011;8954;48.694;8.940;2023-09-18T11:11:53;300.20;;;102.73;;
17670;SDS011;8954;48.694;8.940;2023-09-18T11:14:49;300.37;;;103.83;;
17670;SDS011;8954;48.694;8.940;2023-09-18T11:17:39;304.20;;;107.37;;
17670;SDS011;8954;48.694;8.940;2023-09-18T11:20:06;300.37;;;103.33;;
17670;SDS011;8954;48.694;8.940;2023-09-18T11:22:40;300.43;;;102.83;;
17670;SDS011;8954;48.694;8.940;2023-09-18T11:25:35;301.87;;;104.73;;
17670;SDS011;8954;48.694;8.940;2023-09-18T11:28:14;306.87;;;111.07;;
17670;SDS011;8954;48.694;8.940;2023-09-18T11:30:51;306.00;;;110.40;;
17670;SDS011;8954;48.694;8.940;2023-09-18T11:36:02;302.40;;;105.73;;
17670;SDS011;8954;48.694;8.940;2023-09-18T11:38:31;300.67;;;103.03;;
17670;SDS011;8954;48.694;8.940;2023-09-18T11:40:59;301.17;;;104.27;;
17670;SDS011;8954;48.694;8.940;2023-09-18T11:43:27;297.80;;;100.40;;
17670;SDS011;8954;48.694;8.940;2023-09-18T11:45:59;303.00;;;107.67;;
17670;SDS011;8954;48.694;8.940;2023-09-18T11:48:27;303.47;;;108.30;;
17670;SDS011;8954;48.694;8.940;2023-09-18T11:50:54;301.97;;;107.40;;
17670;SDS011;8954;48.694;8.940;2023-09-18T11:53:22;302.97;;;105.93;;
17670;SDS011;8954;48.694;8.940;2023-09-18T11:55:49;296.83;;;114.65;;
17670;SDS011;8954;48.694;8.940;2023-09-18T11:58:14;304.20;;;111.93;;
17670;SDS011;8954;48.694;8.940;2023-09-18T12:00:41;304.23;;;110.53;;
17670;SDS011;8954;48.694;8.940;2023-09-18T12:03:13;305.10;;;112.67;;
17670;SDS011;8954;48.694;8.940;2023-09-18T12:05:58;304.53;;;108.67;;
17670;SDS011;8954;48.694;8.940;2023-09-18T12:08:30;302.10;;;104.60;;
17670;SDS011;8954;48.694;8.940;2023-09-18T12:10:57;305.77;;;112.17;;
17670;SDS011;8954;48.694;8.940;2023-09-18T12:13:24;302.10;;;105.87;;
17670;SDS011;8954;48.694;8.940;2023-09-18T12:15:55;304.90;;;110.73;;
17670;SDS011;8954;48.694;8.940;2023-09-18T12:18:22;305.47;;;109.60;;
17670;SDS011;8954;48.694;8.940;2023-09-18T12:20:49;303.53;;;107.60;;
17670;SDS011;8954;48.694;8.940;2023-09-18T12:23:15;302.80;;;105.73;;
17670;SDS011;8954;48.694;8.940;2023-09-18T12:25:45;306.13;;;110.27;;
17670;SDS011;8954;48.694;8.940;2023-09-18T12:28:13;302.37;;;105.73;;
17670;SDS011;8954;48.694;8.940;2023-09-18T12:30:40;310.37;;;121.03;;
17670;SDS011;8954;48.694;8.940;2023-09-18T12:33:06;302.70;;;106.87;;
17670;SDS011;8954;48.694;8.940;2023-09-18T12:35:31;303.67;;;110.47;;
17670;SDS011;8954;48.694;8.940;2023-09-18T12:38:00;306.57;;;113.90;;
17670;SDS011;8954;48.694;8.940;2023-09-18T12:40:26;306.43;;;117.03;;
17670;SDS011;8954;48.694;8.940;2023-09-18T12:43:00;307.27;;;119.67;;
17670;SDS011;8954;48.694;8.940;2023-09-18T12:45:26;286.33;;;138.47;;
17670;SDS011;8954;48.694;8.940;2023-09-18T12:47:54;296.40;;;118.00;;
17670;SDS011;8954;48.694;8.940;2023-09-18T12:50:21;298.67;;;112.47;;
17670;SDS011;8954;48.694;8.940;2023-09-18T12:52:47;298.57;;;110.37;;
17670;SDS011;8954;48.694;8.940;2023-09-18T12:55:22;304.33;;;120.33;;
17670;SDS011;8954;48.694;8.940;2023-09-18T12:57:51;306.30;;;122.77;;
17670;SDS011;8954;48.694;8.940;2023-09-18T13:00:18;300.00;;;112.57;;
17670;SDS011;8954;48.694;8.940;2023-09-18T13:02:47;300.77;;;114.60;;
17670;SDS011;8954;48.694;8.940;2023-09-18T13:05:25;304.27;;;121.50;;
17670;SDS011;8954;48.694;8.940;2023-09-18T13:07:51;299.30;;;113.10;;
17670;SDS011;8954;48.694;8.940;2023-09-18T13:10:20;304.17;;;122.40;;
17670;SDS011;8954;48.694;8.940;2023-09-18T13:12:50;302.97;;;120.13;;
17670;SDS011;8954;48.694;8.940;2023-09-18T13:15:28;298.87;;;112.00;;
17670;SDS011;8954;48.694;8.940;2023-09-18T13:17:55;297.80;;;112.03;;
17670;SDS011;8954;48.694;8.940;2023-09-18T13:20:24;300.80;;;113.60;;
17670;SDS011;8954;48.694;8.940;2023-09-18T13:22:57;305.43;;;124.33;;
17670;SDS011;8954;48.694;8.940;2023-09-18T13:25:27;304.40;;;121.07;;
17670;SDS011;8954;48.694;8.940;2023-09-18T13:28:04;301.93;;;119.90;;
17670;SDS011;8954;48.694;8.940;2023-09-18T13:30:32;302.10;;;120.37;;
17670;SDS011;8954;48.694;8.940;2023-09-18T13:33:04;302.43;;;120.97;;
17670;SDS011;8954;48.694;8.940;2023-09-18T13:35:32;299.63;;;118.03;;
17670;SDS011;8954;48.694;8.940;2023-09-18T13:37:59;297.57;;;115.97;;
17670;SDS011;8954;48.694;8.940;2023-09-18T13:40:24;298.83;;;117.23;;
17670;SDS011;8954;48.694;8.940;2023-09-18T13:42:50;296.57;;;114.63;;
17670;SDS011;8954;48.694;8.940;2023-09-18T13:45:16;299.37;;;117.03;;
17670;SDS011;8954;48.694;8.940;2023-09-18T13:47:41;296.23;;;114.33;;
17670;SDS011;8954;48.694;8.940;2023-09-18T13:50:08;299.93;;;119.70;;
17670;SDS011;8954;48.694;8.940;2023-09-18T13:52:34;299.57;;;121.63;;
17670;SDS011;8954;48.694;8.940;2023-09-18T13:55:01;296.60;;;113.10;;
17670;SDS011;8954;48.694;8.940;2023-09-18T13:57:33;297.53;;;114.10;;
17670;SDS011;8954;48.694;8.940;2023-09-18T14:00:00;298.77;;;116.57;;
17670;SDS011;8954;48.694;8.940;2023-09-18T14:02:32;296.07;;;112.33;;
17670;SDS011;8954;48.694;8.940;2023-09-18T14:05:00;297.20;;;112.67;;
17670;SDS011;8954;48.694;8.940;2023-09-18T14:07:26;300.17;;;124.33;;
17670;SDS011;8954;48.694;8.940;2023-09-18T14:09:52;296.20;;;119.23;;
17670;SDS011;8954;48.694;8.940;2023-09-18T14:12:18;296.57;;;122.27;;
17670;SDS011;8954;48.694;8.940;2023-09-18T14:14:44;296.67;;;121.70;;
17670;SDS011;8954;48.694;8.940;2023-09-18T14:17:10;297.60;;;122.57;;
17670;SDS011;8954;48.694;8.940;2023-09-18T14:19:36;297.90;;;122.00;;
17670;SDS011;8954;48.694;8.940;2023-09-18T14:22:05;296.53;;;116.03;;
17670;SDS011;8954;48.694;8.940;2023-09-18T14:24:32;298.23;;;118.23;;
17670;SDS011;8954;48.694;8.940;2023-09-18T14:26:59;295.33;;;112.50;;
17670;SDS011;8954;48.694;8.940;2023-09-18T14:29:25;298.57;;;118.70;;
17670;SDS011;8954;48.694;8.940;2023-09-18T14:31:51;295.60;;;116.13;;
17670;SDS011;8954;48.694;8.940;2023-09-18T14:34:17;295.10;;;114.10;;
17670;SDS011;8954;48.694;8.940;2023-09-18T14:36:43;295.53;;;114.97;;
17670;SDS011;8954;48.694;8.940;2023-09-18T14:39:09;295.33;;;115.27;;
17670;SDS011;8954;48.694;8.940;2023-09-18T14:41:35;299.33;;;126.07;;
17670;SDS011;8954;48.694;8.940;2023-09-18T14:44:02;292.13;;;114.73;;
17670;SDS011;8954;48.694;8.940;2023-09-18T14:46:31;293.10;;;113.53;;
17670;SDS011;8954;48.694;8.940;2023-09-18T14:49:00;294.23;;;113.40;;
17670;SDS011;8954;48.694;8.940;2023-09-18T14:51:29;292.93;;;114.60;;
17670;SDS011;8954;48.694;8.940;2023-09-18T14:53:55;293.30;;;111.30;;
17670;SDS011;8954;48.694;8.940;2023-09-18T14:56:21;296.97;;;116.17;;
17670;SDS011;8954;48.694;8.940;2023-09-18T14:58:46;296.17;;;110.57;;
17670;SDS011;8954;48.694;8.940;2023-09-18T15:01:12;299.67;;;115.37;;
17670;SDS011;8954;48.694;8.940;2023-09-18T15:03:39;298.10;;;110.20;;
17670;SDS011;8954;48.694;8.940;2023-09-18T15:06:05;305.57;;;123.87;;
17670;SDS011;8954;48.694;8.940;2023-09-18T15:08:32;306.53;;;123.07;;
17670;SDS011;8954;48.694;8.940;2023-09-18T15:10:59;304.13;;;116.97;;
17670;SDS011;8954;48.694;8.940;2023-09-18T15:13:24;304.80;;;117.33;;
17670;SDS011;8954;48.694;8.940;2023-09-18T15:15:50;300.23;;;108.37;;
17670;SDS011;8954;48.694;8.940;2023-09-18T15:18:15;301.10;;;109.43;;
17670;SDS011;8954;48.694;8.940;2023-09-18T15:20:42;304.40;;;115.97;;
17670;SDS011;8954;48.694;8.940;2023-09-18T15:23:08;305.17;;;115.23;;
17670;SDS011;8954;48.694;8.940;2023-09-18T15:25:35;301.57;;;107.63;;
17670;SDS011;8954;48.694;8.940;2023-09-18T15:28:12;304.87;;;113.17;;
17670;SDS011;8954;48.694;8.940;2023-09-18T15:30:38;301.80;;;108.23;;
17670;SDS011;8954;48.694;8.940;2023-09-18T15:33:04;303.50;;;113.23;;
17670;SDS011;8954;48.694;8.940;2023-09-18T15:35:30;301.97;;;107.53;;
17670;SDS011;8954;48.694;8.940;2023-09-18T15:37:56;305.60;;;113.20;;
17670;SDS011;8954;48.694;8.940;2023-09-18T15:40:22;303.47;;;109.13;;
17670;SDS011;8954;48.694;8.940;2023-09-18T15:42:51;302.93;;;107.70;;
17670;SDS011;8954;48.694;8.940;2023-09-18T15:45:16;303.30;;;109.00;;
17670;SDS011;8954;48.694;8.940;2023-09-18T15:47:43;302.80;;;107.37;;
17670;SDS011;8954;48.694;8.940;2023-09-18T15:50:09;302.53;;;106.57;;
17670;SDS011;8954;48.694;8.940;2023-09-18T15:52:36;302.30;;;107.07;;
17670;SDS011;8954;48.694;8.940;2023-09-18T15:55:02;302.00;;;107.17;;
17670;SDS011;8954;48.694;8.940;2023-09-18T15:57:32;300.27;;;102.60;;
17670;SDS011;8954;48.694;8.940;2023-09-18T15:59:59;308.37;;;116.07;;
17670;SDS011;8954;48.694;8.940;2023-09-18T16:02:31;306.80;;;115.27;;
